createdAt,value
2023-04-05T00:00:52.475Z,92.88
2023-04-05T00:02:32.871Z,93.07
2023-04-05T00:04:13.252Z,93.02
2023-04-05T00:05:53.573Z,93.35
2023-04-05T00:07:33.939Z,93.46
2023-04-05T00:09:14.419Z,93.04
2023-04-05T00:10:54.826Z,93.19
2023-04-05T00:12:35.242Z,93.6
2023-04-05T00:14:15.646Z,93.87
2023-04-05T00:15:56.023Z,94.1
2023-04-05T00:17:36.375Z,94.42
2023-04-05T00:19:16.717Z,94.55
2023-04-05T00:20:57.107Z,94.6
2023-04-05T00:22:37.436Z,94.27
2023-04-05T00:24:17.822Z,93.9
2023-04-05T00:25:58.184Z,93.79
2023-04-05T00:27:38.577Z,94.08
2023-04-05T00:29:19.023Z,93.91
2023-04-05T00:30:59.400Z,93.94
2023-04-05T00:32:39.856Z,93.72
2023-04-05T00:34:20.285Z,93.88
2023-04-05T00:36:00.727Z,94.18
2023-04-05T00:37:41.045Z,94.54
2023-04-05T00:39:21.386Z,94.44
2023-04-05T00:41:01.712Z,94.83
2023-04-05T00:42:42.144Z,95.07
2023-04-05T00:44:22.472Z,95.24
2023-04-05T00:46:02.903Z,95.43
2023-04-05T00:47:43.314Z,95.57
2023-04-05T00:49:23.576Z,95.73
2023-04-05T00:51:03.992Z,95.77
2023-04-05T00:52:44.362Z,95.53
2023-04-05T00:54:24.763Z,95.34
2023-04-05T00:56:05.114Z,95.21
2023-04-05T00:57:45.459Z,95.09
2023-04-05T00:59:25.953Z,94.83
2023-04-05T01:01:06.533Z,94.72
2023-04-05T01:02:46.779Z,94.9
2023-04-05T01:04:27.194Z,95.29
2023-04-05T01:06:09.132Z,95.75
2023-04-05T01:07:47.951Z,95.85
2023-04-05T01:09:28.359Z,95.96
2023-04-05T01:11:08.787Z,96.07
2023-04-05T01:12:49.233Z,96.01
2023-04-05T01:14:29.534Z,96.01
2023-04-05T01:16:09.985Z,95.75
2023-04-05T01:17:50.394Z,95.66
2023-04-05T01:19:30.680Z,95.5
2023-04-05T01:21:10.990Z,95.43
2023-04-05T01:22:51.377Z,95.72
2023-04-05T01:24:31.707Z,95.92
2023-04-05T01:26:12.124Z,96.1
2023-04-05T01:27:52.581Z,96.02
2023-04-05T01:29:32.930Z,96.24
2023-04-05T01:31:13.361Z,96.02
2023-04-05T01:32:53.725Z,95.83
2023-04-05T01:34:34.116Z,95.8
2023-04-05T01:36:14.520Z,95.89
2023-04-05T01:37:54.827Z,95.88
2023-04-05T01:39:35.297Z,95.84
2023-04-05T01:41:15.735Z,95.81
2023-04-05T01:42:56.094Z,95.59
2023-04-05T01:44:36.467Z,95.12
2023-04-05T01:46:16.936Z,95.07
2023-04-05T01:47:57.396Z,94.92
2023-04-05T01:49:37.643Z,95
2023-04-05T01:51:17.989Z,95.22
2023-04-05T01:52:58.308Z,95.45
2023-04-05T01:54:38.718Z,95.72
2023-04-05T01:56:19.196Z,95.94
2023-04-05T01:57:59.641Z,96.2
2023-04-05T01:59:39.907Z,96.18
2023-04-05T02:01:20.286Z,96.39
2023-04-05T02:03:00.743Z,96.58
2023-04-05T02:04:41.035Z,96.63
2023-04-05T02:06:21.443Z,96.57
2023-04-05T02:08:01.836Z,96.48
2023-04-05T02:09:42.251Z,96.48
2023-04-05T02:11:22.760Z,96.46
2023-04-05T02:13:03.078Z,96.7
2023-04-05T02:14:43.535Z,96.81
2023-04-05T02:16:23.982Z,96.96
2023-04-05T02:18:04.422Z,96.9
2023-04-05T02:19:44.693Z,96.86
2023-04-05T02:21:25.104Z,96.84
2023-04-05T02:23:05.471Z,96.92
2023-04-05T02:24:45.859Z,97
2023-04-05T02:26:26.231Z,97.09
2023-04-05T02:28:06.600Z,97.36
2023-04-05T02:29:47.044Z,97.22
2023-04-05T02:31:27.522Z,97.07
2023-04-05T02:33:07.886Z,96.71
2023-04-05T02:34:48.243Z,96.64
2023-04-05T02:36:28.535Z,96.63
2023-04-05T02:38:08.890Z,96.38
2023-04-05T02:39:49.303Z,95.87
2023-04-05T02:41:29.713Z,95.44
2023-04-05T02:43:10.076Z,95.21
2023-04-05T02:44:50.445Z,95.4
2023-04-05T02:46:30.772Z,95.33
2023-04-05T02:48:11.193Z,95.47
2023-04-05T02:49:51.602Z,95.69
2023-04-05T02:51:32.005Z,95.93
2023-04-05T02:53:12.338Z,96.1
2023-04-05T02:54:52.806Z,95.99
2023-04-05T02:56:33.136Z,96.14
2023-04-05T02:58:13.518Z,96.45
2023-04-05T02:59:53.943Z,96.6
2023-04-05T03:01:34.331Z,96.84
2023-04-05T03:03:14.781Z,97.11
2023-04-05T03:04:55.073Z,97.24
2023-04-05T03:06:35.424Z,97.3
2023-04-05T03:08:15.841Z,97.36
2023-04-05T03:09:56.154Z,97.3
2023-04-05T03:11:36.600Z,97.05
2023-04-05T03:13:17.053Z,96.69
2023-04-05T03:14:57.395Z,96.5
2023-04-05T03:16:39.791Z,96.53
2023-04-05T03:18:18.137Z,96.72
2023-04-05T03:19:58.559Z,97.14
2023-04-05T03:21:38.870Z,97.65
2023-04-05T03:23:19.204Z,97.66
2023-04-05T03:24:59.495Z,97.75
2023-04-05T03:26:39.900Z,97.91
2023-04-05T03:28:20.271Z,97.76
2023-04-05T03:30:00.632Z,97.43
2023-04-05T03:31:41.143Z,97.43
2023-04-05T03:33:21.500Z,97.82
2023-04-05T03:35:01.901Z,98.15
2023-04-05T03:36:42.250Z,98.44
2023-04-05T03:38:22.527Z,98.6
2023-04-05T03:40:02.897Z,98.6
2023-04-05T03:41:43.264Z,98.45
2023-04-05T03:43:23.650Z,98.17
2023-04-05T03:45:04.110Z,98.01
2023-04-05T03:46:44.460Z,98.01
2023-04-05T03:48:24.813Z,97.95
2023-04-05T03:50:05.209Z,97.53
2023-04-05T03:51:45.632Z,97.32
2023-04-05T03:53:26.134Z,97.26
2023-04-05T03:55:06.469Z,96.91
2023-04-05T03:56:46.805Z,96.61
2023-04-05T03:58:27.191Z,96.3
2023-04-05T04:00:07.562Z,96.37
2023-04-05T04:01:48.087Z,96.52
2023-04-05T04:03:28.447Z,96.49
2023-04-05T04:05:08.840Z,96.87
2023-04-05T04:06:49.077Z,97.03
2023-04-05T04:08:29.451Z,97.19
2023-04-05T04:10:09.833Z,97.81
2023-04-05T04:11:50.265Z,97.88
2023-04-05T04:13:30.707Z,97.73
2023-04-05T04:15:11.072Z,97.47
2023-04-05T04:16:51.483Z,96.99
2023-04-05T04:18:31.906Z,96.56
2023-04-05T04:20:12.264Z,95.94
2023-04-05T04:21:52.654Z,95.92
2023-04-05T04:23:33.077Z,95.72
2023-04-05T04:25:13.439Z,95.53
2023-04-05T04:26:53.784Z,95.67
2023-04-05T04:28:34.129Z,95.4
2023-04-05T04:30:14.475Z,95.81
2023-04-05T04:31:55.004Z,96.1
2023-04-05T04:33:35.371Z,96.45
2023-04-05T04:35:15.786Z,96.73
2023-04-05T04:36:56.201Z,97.12
2023-04-05T04:38:36.639Z,97.24
2023-04-05T04:40:17.144Z,97.26
2023-04-05T04:41:57.496Z,97.16
2023-04-05T04:43:37.862Z,97.18
2023-04-05T04:45:18.275Z,97.55
2023-04-05T04:46:58.673Z,97.91
2023-04-05T04:48:39.113Z,98.03
2023-04-05T04:50:19.573Z,97.94
2023-04-05T04:51:59.922Z,97.83
2023-04-05T04:53:40.292Z,97.77
2023-04-05T04:55:20.742Z,97.82
2023-04-05T04:57:01.178Z,97.86
2023-04-05T04:58:41.735Z,97.95
2023-04-05T05:00:22.101Z,98.14
2023-04-05T05:02:02.426Z,98.18
2023-04-05T05:03:42.867Z,98.19
2023-04-05T05:05:23.411Z,98.14
2023-04-05T05:07:03.624Z,98.02
2023-04-05T05:08:44.061Z,98.04
2023-04-05T05:10:24.456Z,98.11
2023-04-05T05:12:04.833Z,98.02
2023-04-05T05:13:48.568Z,97.75
2023-04-05T05:15:25.481Z,97.5
2023-04-05T05:17:05.818Z,97.29
2023-04-05T05:18:46.107Z,97.11
2023-04-05T05:20:26.467Z,97.21
2023-04-05T05:22:06.858Z,97.72
2023-04-05T05:23:47.356Z,97.87
2023-04-05T05:25:28.462Z,97.54
2023-04-05T05:27:08.064Z,97.29
2023-04-05T05:28:48.356Z,97.04
2023-04-05T05:30:28.715Z,96.81
2023-04-05T05:32:09.088Z,96.57
2023-04-05T05:33:49.443Z,96.64
2023-04-05T05:35:29.923Z,96.53
2023-04-05T05:37:10.283Z,96.68
2023-04-05T05:38:50.697Z,96.6
2023-04-05T05:40:31.161Z,96.49
2023-04-05T05:42:11.472Z,96.57
2023-04-05T05:43:51.837Z,96.76
2023-04-05T05:45:32.243Z,96.69
2023-04-05T05:47:12.605Z,96.58
2023-04-05T05:48:53.114Z,96.42
2023-04-05T05:50:33.492Z,96.42
2023-04-05T05:52:13.911Z,96.37
2023-04-05T05:53:54.295Z,96.34
2023-04-05T05:55:34.761Z,96.3
2023-04-05T05:57:15.120Z,96.32
2023-04-05T05:58:55.611Z,96.55
2023-04-05T06:00:35.973Z,96.49
2023-04-05T06:02:16.334Z,96.4
2023-04-05T06:03:56.774Z,96.23
2023-04-05T06:05:37.068Z,96.03
2023-04-05T06:07:17.499Z,95.97
2023-04-05T06:08:57.920Z,95.99
2023-04-05T06:10:38.405Z,95.69
2023-04-05T06:12:18.758Z,95.26
2023-04-05T06:13:59.146Z,94.82
2023-04-05T06:15:39.513Z,94.49
2023-04-05T06:17:19.871Z,93.98
2023-04-05T06:19:00.299Z,93.49
2023-04-05T06:20:40.926Z,92.93
2023-04-05T06:22:21.117Z,92.68
2023-04-05T06:24:01.523Z,91.82
2023-04-05T06:25:41.923Z,91.59
2023-04-05T06:27:22.232Z,90.75
2023-04-05T06:29:02.700Z,88.61
2023-04-05T06:30:43.102Z,88.58
2023-04-05T06:32:23.403Z,88.28
2023-04-05T06:34:03.670Z,87.61
2023-04-05T06:35:44.072Z,87.79
2023-04-05T06:37:24.324Z,86.06
2023-04-05T06:39:04.656Z,84.58
2023-04-05T06:40:44.967Z,82.1
2023-04-05T06:42:26.551Z,82.18
2023-04-05T06:44:05.553Z,81.02
2023-04-05T06:45:46.002Z,80.6
2023-04-05T06:47:26.407Z,80.93
2023-04-05T06:49:06.721Z,80.73
2023-04-05T06:50:47.062Z,79.76
2023-04-05T06:52:27.441Z,79.19
2023-04-05T06:54:07.911Z,78.56
2023-04-05T06:55:48.199Z,78.45
2023-04-05T06:57:28.542Z,77.3
2023-04-05T06:59:08.935Z,77.15
2023-04-05T07:00:49.276Z,75.66
2023-04-05T07:02:29.691Z,75.58
2023-04-05T07:04:10.037Z,74.78
2023-04-05T07:05:50.331Z,75.1
2023-04-05T07:07:30.756Z,74.11
2023-04-05T07:09:11.168Z,74.62
2023-04-05T07:10:51.513Z,75.28
2023-04-05T07:12:31.916Z,72.56
2023-04-05T07:14:12.321Z,73.3
2023-04-05T07:15:53.049Z,73.43
2023-04-05T07:17:33.144Z,70.87
2023-04-05T07:19:13.400Z,70.13
2023-04-05T07:20:53.873Z,71.87
2023-04-05T07:22:34.233Z,70.75
2023-04-05T07:24:14.569Z,71.38
2023-04-05T07:25:55.014Z,71.54
2023-04-05T07:27:35.377Z,71.1
2023-04-05T07:29:15.670Z,68.83
2023-04-05T07:30:56.064Z,69.61
2023-04-05T07:32:36.433Z,69.09
2023-04-05T07:34:16.703Z,68.96
2023-04-05T07:35:57.223Z,70.02
2023-04-05T07:37:37.298Z,66.98
2023-04-05T07:39:17.623Z,66.82
2023-04-05T07:40:57.906Z,66.02
2023-04-05T07:42:38.201Z,65.05
2023-04-05T07:44:18.525Z,64.79
2023-04-05T07:45:59.003Z,65.03
2023-04-05T07:47:39.328Z,62.57
2023-04-05T07:49:19.723Z,59.27
2023-04-05T07:51:00.157Z,56.26
2023-04-05T07:52:40.513Z,56.71
2023-04-05T07:54:20.904Z,54.95
2023-04-05T07:56:01.253Z,54.87
2023-04-05T07:57:41.634Z,53.95
2023-04-05T07:59:22.073Z,53.62
2023-04-05T08:01:02.422Z,52.58
2023-04-05T08:02:42.855Z,52.74
2023-04-05T08:04:23.133Z,53.05
2023-04-05T08:06:03.499Z,52.03
2023-04-05T08:07:43.965Z,51.72
2023-04-05T08:09:24.370Z,51.62
2023-04-05T08:11:04.751Z,52.51
2023-04-05T08:12:45.199Z,50.98
2023-04-05T08:14:25.575Z,47.57
2023-04-05T08:16:06.069Z,46.84
2023-04-05T08:17:46.393Z,49.49
2023-04-05T08:19:26.797Z,47.74
2023-04-05T08:21:07.213Z,45.25
2023-04-05T08:22:47.521Z,45.91
2023-04-05T08:24:27.876Z,45.22
2023-04-05T08:26:08.131Z,48.21
2023-04-05T08:27:48.439Z,43.64
2023-04-05T08:29:28.720Z,46.25
2023-04-05T08:31:09.697Z,41.84
2023-04-05T08:32:49.389Z,41.64
2023-04-05T08:34:29.634Z,39.84
2023-04-05T08:36:09.936Z,40.5
2023-04-05T08:37:50.216Z,40.68
2023-04-05T08:39:30.575Z,38.76
2023-04-05T08:41:10.839Z,39.1
2023-04-05T08:42:51.166Z,39.9
2023-04-05T08:44:31.478Z,40.37
2023-04-05T08:46:11.815Z,35.82
2023-04-05T08:47:52.260Z,35.45
2023-04-05T08:49:32.466Z,36.89
2023-04-05T08:51:12.865Z,35.8
2023-04-05T08:52:53.236Z,34.59
2023-04-05T08:54:33.627Z,35.81
2023-04-05T08:56:13.975Z,36.68
2023-04-05T08:57:54.389Z,38.11
2023-04-05T08:59:34.811Z,36.24
2023-04-05T09:01:15.207Z,35.41
2023-04-05T09:02:55.669Z,35.3
2023-04-05T09:04:35.961Z,36.79
2023-04-05T09:06:16.325Z,35.86
2023-04-05T09:07:56.765Z,33.74
2023-04-05T09:09:37.172Z,34.7
2023-04-05T09:11:17.652Z,33.38
2023-04-05T09:12:58.099Z,34.72
2023-04-05T09:14:38.445Z,33.63
2023-04-05T09:16:18.924Z,34.12
2023-04-05T09:17:59.275Z,31.59
2023-04-05T09:19:39.575Z,30.91
2023-04-05T09:21:19.961Z,30.96
2023-04-05T09:23:00.304Z,34.24
2023-04-05T09:24:40.730Z,30.86
2023-04-05T09:26:21.032Z,30.82
2023-04-05T09:28:01.348Z,32.76
2023-04-05T09:29:41.654Z,33.3
2023-04-05T09:31:21.973Z,32.3
2023-04-05T09:33:02.295Z,32.49
2023-04-05T09:34:42.570Z,33.36
2023-04-05T09:36:22.961Z,33.03
2023-04-05T09:38:03.286Z,34.17
2023-04-05T09:39:43.626Z,34.94
2023-04-05T09:41:24.055Z,35.17
2023-04-05T09:43:04.465Z,32.93
2023-04-05T09:44:44.895Z,35.55
2023-04-05T09:46:25.247Z,31.43
2023-04-05T09:48:05.689Z,32.27
2023-04-05T09:49:46.080Z,31.48
2023-04-05T09:51:26.466Z,30.55
2023-04-05T09:53:06.967Z,32.49
2023-04-05T09:54:47.296Z,31.11
2023-04-05T09:56:27.678Z,31.42
2023-04-05T09:58:08.073Z,30.78
2023-04-05T09:59:48.421Z,29.42
2023-04-05T10:01:28.870Z,29.77
2023-04-05T10:03:09.230Z,31.02
2023-04-05T10:04:49.527Z,31.17
2023-04-05T10:06:29.922Z,32.67
2023-04-05T10:08:10.397Z,34.5
2023-04-05T10:09:50.807Z,31.83
2023-04-05T10:11:31.189Z,33.42
2023-04-05T10:13:11.530Z,31.16
2023-04-05T10:14:51.790Z,31.85
2023-04-05T10:16:32.212Z,33.25
2023-04-05T10:18:12.472Z,34.66
2023-04-05T10:19:52.774Z,33.44
2023-04-05T10:21:33.073Z,32.21
2023-04-05T10:23:13.366Z,33.93
2023-04-05T10:24:53.862Z,32.69
2023-04-05T10:26:34.446Z,35.22
2023-04-05T10:28:14.680Z,34.45
2023-04-05T10:29:55.089Z,35.19
2023-04-05T10:31:38.043Z,34.58
2023-04-05T10:33:15.833Z,32.88
2023-04-05T10:34:56.184Z,33.55
2023-04-05T10:36:36.517Z,36.33
2023-04-05T10:38:16.857Z,35.01
2023-04-05T10:39:57.258Z,32.26
2023-04-05T10:41:37.634Z,32.76
2023-04-05T10:43:18.081Z,31.94
2023-04-05T10:44:58.409Z,30
2023-04-05T10:46:38.877Z,32.93
2023-04-05T10:48:19.280Z,32.38
2023-04-05T10:49:59.703Z,30.3
2023-04-05T10:51:40.015Z,28.69
2023-04-05T10:53:20.360Z,28.84
2023-04-05T10:55:00.842Z,31.02
2023-04-05T10:56:41.217Z,29.92
2023-04-05T10:58:21.695Z,29.96
2023-04-05T11:00:02.052Z,29.86
2023-04-05T11:01:42.537Z,28.46
2023-04-05T11:03:23.003Z,28.73
2023-04-05T11:05:03.263Z,32.18
2023-04-05T11:06:43.625Z,28.47
2023-04-05T11:08:23.963Z,29.6
2023-04-05T11:10:04.331Z,30.82
2023-04-05T11:11:44.628Z,29.23
2023-04-05T11:13:25.022Z,29.52
2023-04-05T11:15:05.476Z,29.83
2023-04-05T11:16:45.975Z,33.3
2023-04-05T11:18:26.330Z,28.43
2023-04-05T11:20:06.752Z,28.92
2023-04-05T11:21:47.070Z,28.06
2023-04-05T11:23:27.439Z,28.55
2023-04-05T11:25:07.847Z,30.99
2023-04-05T11:26:48.118Z,29.88
2023-04-05T11:28:28.611Z,31.76
2023-04-05T11:30:09.012Z,33.64
2023-04-05T11:31:49.532Z,31.94
2023-04-05T11:33:29.912Z,28.58
2023-04-05T11:35:10.290Z,28.72
2023-04-05T11:36:50.640Z,29.09
2023-04-05T11:38:30.925Z,30.09
2023-04-05T11:40:11.252Z,28.32
2023-04-05T11:41:51.620Z,28.39
2023-04-05T11:43:31.959Z,27.36
2023-04-05T11:45:12.283Z,26.3
2023-04-05T11:46:52.733Z,27.28
2023-04-05T11:48:33.077Z,31.95
2023-04-05T11:50:13.478Z,28.73
2023-04-05T11:51:53.946Z,26.85
2023-04-05T11:53:34.249Z,27.68
2023-04-05T11:55:14.577Z,27.66
2023-04-05T11:56:55.161Z,26.78
2023-04-05T11:58:35.437Z,30.23
2023-04-05T12:00:15.820Z,26.68
2023-04-05T12:01:56.216Z,28.13
2023-04-05T12:03:36.687Z,27.58
2023-04-05T12:05:17.163Z,28.29
2023-04-05T12:06:57.419Z,28.02
2023-04-05T12:08:37.789Z,26.84
2023-04-05T12:10:18.193Z,26
2023-04-05T12:11:58.568Z,31.19
2023-04-05T12:13:38.883Z,32.38
2023-04-05T12:15:19.406Z,32.25
2023-04-05T12:16:59.661Z,27.41
2023-04-05T12:18:40.066Z,28.73
2023-04-05T12:20:20.455Z,27.53
2023-04-05T12:22:00.749Z,27.69
2023-04-05T12:23:41.133Z,28.49
2023-04-05T12:25:21.519Z,28.27
2023-04-05T12:27:01.821Z,26.29
2023-04-05T12:28:42.190Z,26.81
2023-04-05T12:30:22.694Z,27.71
2023-04-05T12:32:02.960Z,26.05
2023-04-05T12:33:43.340Z,26.3
2023-04-05T12:35:23.700Z,26.73
2023-04-05T12:37:04.091Z,27.05
2023-04-05T12:38:44.561Z,26.03
2023-04-05T12:40:24.985Z,26.45
2023-04-05T12:42:05.297Z,25.53
2023-04-05T12:43:45.684Z,27.41
2023-04-05T12:45:26.137Z,29.07
2023-04-05T12:47:06.541Z,28.04
2023-04-05T12:48:46.979Z,27.93
2023-04-05T12:50:27.357Z,28.33
2023-04-05T12:52:07.746Z,28.71
2023-04-05T12:53:48.175Z,29.33
2023-04-05T12:55:28.512Z,28.62
2023-04-05T12:57:09.077Z,30.73
2023-04-05T12:58:49.413Z,29.3
2023-04-05T13:00:29.677Z,30.7
2023-04-05T13:02:10.055Z,30.83
2023-04-05T13:03:51.153Z,28.99
2023-04-05T13:05:30.917Z,32.21
2023-04-05T13:07:11.192Z,29.08
2023-04-05T13:08:51.695Z,31.46
2023-04-05T13:10:32.078Z,27.52
2023-04-05T13:12:12.409Z,28.25
2023-04-05T13:13:52.793Z,28.28
2023-04-05T13:15:33.275Z,28.26
2023-04-05T13:17:13.599Z,28.44
2023-04-05T13:18:54.045Z,28.55
2023-04-05T13:20:34.336Z,30.07
2023-04-05T13:22:14.768Z,30.34
2023-04-05T13:23:55.105Z,29.05
2023-04-05T13:25:35.577Z,27.97
2023-04-05T13:27:15.937Z,28.82
2023-04-05T13:28:56.290Z,31.17
2023-04-05T13:30:36.705Z,32.67
2023-04-05T13:32:17.049Z,26.1
2023-04-05T13:33:57.551Z,29.79
2023-04-05T13:35:37.906Z,26.88
2023-04-05T13:37:18.400Z,26.61
2023-04-05T13:38:58.698Z,26.62
2023-04-05T13:40:39.020Z,27.52
2023-04-05T13:42:19.308Z,29.46
2023-04-05T13:44:01.983Z,29.73
2023-04-05T13:45:40.146Z,28.95
2023-04-05T13:47:20.233Z,28.08
2023-04-05T13:49:00.524Z,27.27
2023-04-05T13:50:41.077Z,26.33
2023-04-05T13:52:21.193Z,30.3
2023-04-05T13:54:01.595Z,29.84
2023-04-05T13:55:42.148Z,29.3
2023-04-05T13:57:22.272Z,27.52
2023-04-05T13:59:02.755Z,26.89
2023-04-05T14:00:43.525Z,29.52
2023-04-05T14:02:23.567Z,29.49
2023-04-05T14:04:03.959Z,27.98
2023-04-05T14:05:45.137Z,31.63
2023-04-05T14:07:24.753Z,28.26
2023-04-05T14:09:05.109Z,29.3
2023-04-05T14:10:45.526Z,29.26
2023-04-05T14:12:25.858Z,30.29
2023-04-05T14:14:06.217Z,30.66
2023-04-05T14:15:46.670Z,28.93
2023-04-05T14:17:27.011Z,29.78
2023-04-05T14:19:07.384Z,28.56
2023-04-05T14:20:47.762Z,28.31
2023-04-05T14:22:28.148Z,27.86
2023-04-05T14:24:08.524Z,29.51
2023-04-05T14:25:48.895Z,29.1
2023-04-05T14:27:29.289Z,28.91
2023-04-05T14:29:09.644Z,27.19
2023-04-05T14:30:50.080Z,28.1
2023-04-05T14:32:33.047Z,27.34
2023-04-05T14:34:10.714Z,27.15
2023-04-05T14:35:51.040Z,27.92
2023-04-05T14:37:31.296Z,27.35
2023-04-05T14:39:11.754Z,29.71
2023-04-05T14:40:52.142Z,27.21
2023-04-05T14:42:47.602Z,26.73
2023-04-05T14:44:12.866Z,28.25
2023-04-05T14:45:53.301Z,27.89
2023-04-05T14:47:33.685Z,29.09
2023-04-05T14:49:14.036Z,31.33
2023-04-05T14:50:54.488Z,28.67
2023-04-05T14:52:34.881Z,27.52
2023-04-05T14:54:15.263Z,29.18
2023-04-05T14:55:55.693Z,30.68
2023-04-05T14:57:35.994Z,30.78
2023-04-05T14:59:16.475Z,31.09
2023-04-05T15:00:56.833Z,31.89
2023-04-05T15:02:37.184Z,33.24
2023-04-05T15:04:17.575Z,35.88
2023-04-05T15:05:58.001Z,34.81
2023-04-05T15:07:38.351Z,33.98
2023-04-05T15:09:18.726Z,34.26
2023-04-05T15:10:59.140Z,34.79
2023-04-05T15:12:39.470Z,34.23
2023-04-05T15:14:30.682Z,37.36
2023-04-05T15:16:00.306Z,32.47
2023-04-05T15:17:40.821Z,31.53
2023-04-05T15:19:21.159Z,34.94
2023-04-05T15:21:01.567Z,33.41
2023-04-05T15:22:41.950Z,33.84
2023-04-05T15:24:22.347Z,30.69
2023-04-05T15:26:02.816Z,29.78
2023-04-05T15:27:43.125Z,29.81
2023-04-05T15:29:23.640Z,29.67
2023-04-05T15:31:04.101Z,31.88
2023-04-05T15:32:44.543Z,30.66
2023-04-05T15:34:24.854Z,30.04
2023-04-05T15:36:05.335Z,29.27
2023-04-05T15:37:45.793Z,29.15
2023-04-05T15:39:26.226Z,28.45
2023-04-05T15:41:06.723Z,29.31
2023-04-05T15:42:47.048Z,30.04
2023-04-05T15:44:27.320Z,28.52
2023-04-05T15:46:07.713Z,28.91
2023-04-05T15:47:48.090Z,28.8
2023-04-05T15:49:28.509Z,28.86
2023-04-05T15:51:08.988Z,30.71
2023-04-05T15:52:49.333Z,30.12
2023-04-05T15:54:29.750Z,31.01
2023-04-05T15:56:10.130Z,30.52
2023-04-05T15:57:50.574Z,30.53
2023-04-05T15:59:31.064Z,30.83
2023-04-05T16:01:11.415Z,29.81
2023-04-05T16:02:54.111Z,31.61
2023-04-05T16:04:32.276Z,32.23
2023-04-05T16:06:12.733Z,32.25
2023-04-05T16:07:53.132Z,29.84
2023-04-05T16:09:33.562Z,29.82
2023-04-05T16:11:13.944Z,31.19
2023-04-05T16:12:54.451Z,30.3
2023-04-05T16:14:34.826Z,31.12
2023-04-05T16:16:20.426Z,33.01
2023-04-05T16:17:55.652Z,31.48
2023-04-05T16:19:36.026Z,30.81
2023-04-05T16:21:16.524Z,31.29
2023-04-05T16:22:56.949Z,31.11
2023-04-05T16:24:37.313Z,29.46
2023-04-05T16:26:17.686Z,29.63
2023-04-05T16:27:58.183Z,28.74
2023-04-05T16:29:38.578Z,29.65
2023-04-05T16:31:19.005Z,29.06
2023-04-05T16:32:59.543Z,29.48
2023-04-05T16:34:39.737Z,28.57
2023-04-05T16:36:20.075Z,28.09
2023-04-05T16:38:00.447Z,28.96
2023-04-05T16:39:40.765Z,28.75
2023-04-05T16:41:21.187Z,29.82
2023-04-05T16:43:01.559Z,29.83
2023-04-05T16:44:41.942Z,30.1
2023-04-05T16:46:22.534Z,30.87
2023-04-05T16:48:02.834Z,30.78
2023-04-05T16:49:43.146Z,31.82
2023-04-05T16:51:23.509Z,33.43
2023-04-05T16:53:03.935Z,32.35
2023-04-05T16:54:44.324Z,32.48
2023-04-05T16:56:25.024Z,33.01
2023-04-05T16:58:05.167Z,33.4
2023-04-05T16:59:45.581Z,35.19
2023-04-05T17:01:26.012Z,35
2023-04-05T17:03:06.380Z,35.43
2023-04-05T17:04:46.604Z,36.23
2023-04-05T17:06:27.035Z,35.85
2023-04-05T17:08:07.445Z,36.18
2023-04-05T17:09:47.773Z,37.05
2023-04-05T17:11:28.174Z,36.16
2023-04-05T17:13:08.570Z,36.96
2023-04-05T17:14:48.978Z,37
2023-04-05T17:16:29.441Z,38.18
2023-04-05T17:18:09.887Z,38.47
2023-04-05T17:19:50.275Z,39.53
2023-04-05T17:21:30.652Z,40.12
2023-04-05T17:23:10.973Z,40.18
2023-04-05T17:24:51.348Z,39.9
2023-04-05T17:26:31.746Z,41.31
2023-04-05T17:28:12.075Z,40.63
2023-04-05T17:29:52.430Z,39.61
2023-04-05T17:31:32.824Z,40.35
2023-04-05T17:33:13.186Z,41.87
2023-04-05T17:34:53.612Z,42.47
2023-04-05T17:36:34.027Z,42.12
2023-04-05T17:38:14.402Z,43.16
2023-04-05T17:39:54.792Z,44.93
2023-04-05T17:41:35.118Z,45.51
2023-04-05T17:43:15.545Z,46.87
2023-04-05T17:44:56.873Z,48.32
2023-04-05T17:46:41.627Z,50.2
2023-04-05T17:48:17.000Z,51.05
2023-04-05T17:49:57.220Z,52.33
2023-04-05T17:51:37.633Z,53.47
2023-04-05T17:53:18.004Z,54.14
2023-04-05T17:54:58.360Z,54.53
2023-04-05T17:56:38.755Z,56.21
2023-04-05T17:58:19.100Z,56.87
2023-04-05T17:59:59.538Z,61.03
2023-04-05T18:01:39.988Z,63.21
2023-04-05T18:03:20.345Z,65.25
2023-04-05T18:05:00.706Z,64.81
2023-04-05T18:06:41.069Z,62.59
2023-04-05T18:08:21.463Z,61.95
2023-04-05T18:10:01.945Z,62.15
2023-04-05T18:11:42.298Z,60.85
2023-04-05T18:13:22.706Z,58.97
2023-04-05T18:15:03.146Z,59.07
2023-04-05T18:16:43.634Z,59.03
2023-04-05T18:18:23.965Z,59.07
2023-04-05T18:20:04.252Z,57.93
2023-04-05T18:21:44.591Z,58.46
2023-04-05T18:23:25.132Z,57.88
2023-04-05T18:25:05.257Z,58.38
2023-04-05T18:26:45.625Z,57.2
2023-04-05T18:28:26.007Z,57.25
2023-04-05T18:30:06.385Z,57.63
2023-04-05T18:31:46.818Z,57.3
2023-04-05T18:33:27.239Z,57.6
2023-04-05T18:35:07.599Z,57.46
2023-04-05T18:36:47.990Z,57.79
2023-04-05T18:38:28.380Z,58.57
2023-04-05T18:40:08.716Z,58.93
2023-04-05T18:41:49.092Z,58.97
2023-04-05T18:43:29.420Z,59.27
2023-04-05T18:45:09.866Z,59.64
2023-04-05T18:46:50.203Z,59.99
2023-04-05T18:48:30.517Z,60.88
2023-04-05T18:50:10.940Z,60.89
2023-04-05T18:51:51.360Z,60.99
2023-04-05T18:53:31.727Z,61.38
2023-04-05T18:55:12.155Z,61.62
2023-04-05T18:56:52.563Z,62.09
2023-04-05T18:58:32.942Z,62.78
2023-04-05T19:00:13.333Z,63.45
2023-04-05T19:01:53.817Z,63.64
2023-04-05T19:03:34.156Z,64.7
2023-04-05T19:05:14.485Z,64.36
2023-04-05T19:06:54.912Z,65.19
2023-04-05T19:08:35.287Z,65.8
2023-04-05T19:10:15.725Z,66.14
2023-04-05T19:11:56.045Z,66.61
2023-04-05T19:13:36.362Z,67.11
2023-04-05T19:15:16.792Z,66.97
2023-04-05T19:16:57.127Z,68.06
2023-04-05T19:18:37.479Z,68.4
2023-04-05T19:20:17.904Z,69.09
2023-04-05T19:21:58.335Z,69.92
2023-04-05T19:23:38.725Z,69.79
2023-04-05T19:25:19.095Z,70.09
2023-04-05T19:26:59.517Z,70.48
2023-04-05T19:28:39.907Z,70.72
2023-04-05T19:30:20.334Z,70.98
2023-04-05T19:32:00.792Z,71.05
2023-04-05T19:33:41.152Z,71.13
2023-04-05T19:35:21.534Z,72.22
2023-04-05T19:37:01.963Z,72.29
2023-04-05T19:38:42.230Z,72.88
2023-04-05T19:40:22.591Z,72.87
2023-04-05T19:42:03.047Z,73.1
2023-04-05T19:43:43.458Z,74.32
2023-04-05T19:45:23.821Z,74.39
2023-04-05T19:47:04.160Z,74.77
2023-04-05T19:48:44.599Z,75.58
2023-04-05T19:50:25.560Z,75.08
2023-04-05T19:52:05.402Z,75.06
2023-04-05T19:53:45.795Z,75.75
2023-04-05T19:55:26.100Z,75.83
2023-04-05T19:57:06.551Z,75.66
2023-04-05T19:58:46.941Z,75.87
2023-04-05T20:00:27.328Z,76.48
2023-04-05T20:02:10.916Z,76.55
2023-04-05T20:03:48.111Z,77.19
2023-04-05T20:05:28.431Z,77.29
2023-04-05T20:07:08.724Z,77.02
2023-04-05T20:08:49.069Z,77.3
2023-04-05T20:10:29.371Z,77.75
2023-04-05T20:12:09.674Z,77.61
2023-04-05T20:13:49.988Z,77.88
2023-04-05T20:15:30.461Z,78.04
2023-04-05T20:17:10.807Z,78.32
2023-04-05T20:18:51.190Z,78.59
2023-04-05T20:20:31.582Z,79.43
2023-04-05T20:22:11.938Z,79.54
2023-04-05T20:23:52.372Z,79.56
2023-04-05T20:25:32.735Z,80.09
2023-04-05T20:27:13.129Z,79.81
2023-04-05T20:28:53.659Z,79.66
2023-04-05T20:30:34.043Z,80.28
2023-04-05T20:32:14.526Z,79.67
2023-04-05T20:33:54.892Z,79.76
2023-04-05T20:35:35.264Z,79.61
2023-04-05T20:37:15.700Z,79.84
2023-04-05T20:38:56.146Z,80.07
2023-04-05T20:40:36.463Z,79.62
2023-04-05T20:42:16.924Z,79.83
2023-04-05T20:43:57.240Z,80.77
2023-04-05T20:45:40.663Z,80.76
2023-04-05T20:47:17.927Z,81.46
2023-04-05T20:48:58.390Z,81.6
2023-04-05T20:50:38.722Z,82.23
2023-04-05T20:52:19.123Z,81.86
2023-04-05T20:53:59.540Z,81.92
2023-04-05T20:55:39.939Z,82.51
2023-04-05T20:57:20.412Z,83.01
2023-04-05T20:59:00.929Z,82.94
2023-04-05T21:00:41.242Z,82.49
2023-04-05T21:02:21.648Z,82.93
2023-04-05T21:04:02.012Z,83.58
2023-04-05T21:05:42.366Z,83.18
2023-04-05T21:07:22.728Z,83.2
2023-04-05T21:09:03.119Z,83.22
2023-04-05T21:10:43.556Z,84.51
2023-04-05T21:12:23.967Z,83.65
2023-04-05T21:14:04.347Z,83.55
2023-04-05T21:15:44.755Z,83.32
2023-04-05T21:17:25.126Z,82.73
2023-04-05T21:19:05.518Z,82.65
2023-04-05T21:20:45.853Z,82.9
2023-04-05T21:22:26.232Z,84.83
2023-04-05T21:24:06.623Z,85.77
2023-04-05T21:25:46.976Z,86.04
2023-04-05T21:27:27.328Z,85.69
2023-04-05T21:29:07.880Z,85.72
2023-04-05T21:30:48.063Z,85.57
2023-04-05T21:32:28.434Z,86.22
2023-04-05T21:34:08.797Z,86.06
2023-04-05T21:35:49.303Z,85.94
2023-04-05T21:37:29.558Z,86.08